createdAt,value
2023-05-06T00:00:05.753Z,17.36
2023-05-06T00:02:32.920Z,17.14
2023-05-06T00:05:00.027Z,16.68
2023-05-06T00:07:26.915Z,16.76
2023-05-06T00:09:53.762Z,17.17
2023-05-06T00:12:20.622Z,16.87
2023-05-06T00:14:47.493Z,16.28
2023-05-06T00:17:14.415Z,17.08
2023-05-06T00:19:41.293Z,16.87
2023-05-06T00:22:08.284Z,17.04
2023-05-06T00:24:35.216Z,17.04
2023-05-06T00:27:02.008Z,17.56
2023-05-06T00:29:29.591Z,17.26
2023-05-06T00:31:56.436Z,16.66
2023-05-06T00:34:23.316Z,17.29
2023-05-06T00:36:50.148Z,17.44
2023-05-06T00:39:17.013Z,17.50
2023-05-06T00:41:43.850Z,16.60
2023-05-06T00:44:10.682Z,16.42
2023-05-06T00:46:37.789Z,16.70
2023-05-06T00:49:04.682Z,16.88
2023-05-06T00:51:32.336Z,16.83
2023-05-06T00:53:59.305Z,16.36
2023-05-06T00:56:26.178Z,16.64
2023-05-06T00:58:54.016Z,16.44
2023-05-06T01:01:23.032Z,16.93
2023-05-06T01:03:50.076Z,17.34
2023-05-06T01:06:36.163Z,17.44
2023-05-06T01:09:21.414Z,16.97
2023-05-06T01:12:00.113Z,16.89
2023-05-06T01:14:54.454Z,16.78
2023-05-06T01:17:25.114Z,16.48
2023-05-06T01:19:55.586Z,16.93
2023-05-06T01:22:23.792Z,16.81
2023-05-06T01:24:50.748Z,16.46
2023-05-06T01:27:18.419Z,16.95
2023-05-06T01:29:46.727Z,17.30
2023-05-06T01:32:19.528Z,16.69
2023-05-06T01:35:22.030Z,16.87
2023-05-06T01:38:35.150Z,16.96
2023-05-06T01:41:02.279Z,16.26
2023-05-06T01:43:32.697Z,16.73
2023-05-06T01:46:00.793Z,16.38
2023-05-06T01:48:30.754Z,17.39
2023-05-06T01:50:57.752Z,16.75
2023-05-06T01:53:24.580Z,16.31
2023-05-06T01:55:51.451Z,16.67
2023-05-06T01:58:18.289Z,16.62
2023-05-06T02:00:45.153Z,16.17
2023-05-06T02:03:12.633Z,16.09
2023-05-06T02:05:39.567Z,16.13
2023-05-06T02:08:06.486Z,16.04
2023-05-06T02:10:33.366Z,16.35
2023-05-06T02:13:00.289Z,16.29
2023-05-06T02:15:27.334Z,16.39
2023-05-06T02:17:54.263Z,16.71
2023-05-06T02:20:21.133Z,16.94
2023-05-06T02:22:48.005Z,17.16
2023-05-06T02:25:15.001Z,16.68
2023-05-06T02:27:41.898Z,16.83
2023-05-06T02:30:09.046Z,16.69
2023-05-06T02:32:36.303Z,15.97
2023-05-06T02:35:03.489Z,15.79
2023-05-06T02:37:30.329Z,16.74
2023-05-06T02:39:57.240Z,16.17
2023-05-06T02:42:24.140Z,16.19
2023-05-06T02:44:51.019Z,16.99
2023-05-06T02:47:17.909Z,16.87
2023-05-06T02:49:44.716Z,16.63
2023-05-06T02:52:11.618Z,16.67
2023-05-06T02:54:38.449Z,17.12
2023-05-06T02:57:05.318Z,17.05
2023-05-06T02:59:32.175Z,17.02
2023-05-06T03:01:59.045Z,16.77
2023-05-06T03:04:26.013Z,16.20
2023-05-06T03:06:52.845Z,16.29
2023-05-06T03:09:19.766Z,16.38
2023-05-06T03:11:46.616Z,16.10
2023-05-06T03:14:13.431Z,16.22
2023-05-06T03:16:40.338Z,16.38
2023-05-06T03:19:07.223Z,16.49
2023-05-06T03:21:34.110Z,16.54
2023-05-06T03:24:01.177Z,16.82
2023-05-06T03:26:28.036Z,16.22
2023-05-06T03:28:54.934Z,16.32
2023-05-06T03:31:21.792Z,16.44
2023-05-06T03:33:48.668Z,16.73
2023-05-06T03:36:15.499Z,16.24
2023-05-06T03:38:42.384Z,15.70
2023-05-06T03:41:09.323Z,16.16
2023-05-06T03:43:36.343Z,15.48
2023-05-06T03:46:03.893Z,16.24
2023-05-06T03:48:31.448Z,16.18
2023-05-06T03:50:58.332Z,16.60
2023-05-06T03:53:25.987Z,17.25
2023-05-06T03:55:52.852Z,17.02
2023-05-06T03:58:19.719Z,16.46
2023-05-06T04:00:46.564Z,16.30
2023-05-06T04:03:13.561Z,17.37
2023-05-06T04:05:40.467Z,17.53
2023-05-06T04:08:07.636Z,17.02
2023-05-06T04:10:39.399Z,17.02
2023-05-06T04:13:06.467Z,16.96
2023-05-06T04:15:34.700Z,17.14
2023-05-06T04:18:01.794Z,17.90
2023-05-06T04:20:28.701Z,17.89
2023-05-06T04:22:55.562Z,17.43
2023-05-06T04:25:22.436Z,18.05
2023-05-06T04:27:49.268Z,18.29
2023-05-06T04:30:16.215Z,17.95
2023-05-06T04:32:43.579Z,18.12
2023-05-06T04:35:10.815Z,18.56
2023-05-06T04:37:37.840Z,19.01
2023-05-06T04:40:05.887Z,19.48
2023-05-06T04:42:33.732Z,19.90
2023-05-06T04:45:00.927Z,20.50
2023-05-06T04:47:27.925Z,21.48
2023-05-06T04:49:54.878Z,22.37
2023-05-06T04:52:21.707Z,22.81
2023-05-06T04:54:48.546Z,23.25
2023-05-06T04:57:15.421Z,23.34
2023-05-06T04:59:42.783Z,23.27
2023-05-06T05:02:09.649Z,23.49
2023-05-06T05:04:36.733Z,23.40
2023-05-06T05:07:03.575Z,23.19
2023-05-06T05:09:30.475Z,22.81
2023-05-06T05:11:57.306Z,22.64
2023-05-06T05:14:24.200Z,22.39
2023-05-06T05:16:51.073Z,22.11
2023-05-06T05:19:17.904Z,21.95
2023-05-06T05:21:44.726Z,21.70
2023-05-06T05:24:11.615Z,22.11
2023-05-06T05:26:38.479Z,22.72
2023-05-06T05:29:05.386Z,22.69
2023-05-06T05:31:32.486Z,22.63
2023-05-06T05:33:59.402Z,22.51
2023-05-06T05:36:26.431Z,22.20
2023-05-06T05:38:53.287Z,22.39
2023-05-06T05:41:20.212Z,22.01
2023-05-06T05:43:47.098Z,22.63
2023-05-06T05:46:14.492Z,22.76
2023-05-06T05:48:41.478Z,23.34
2023-05-06T05:51:08.355Z,24.04
2023-05-06T05:53:35.220Z,24.45
2023-05-06T05:56:02.062Z,25.25
2023-05-06T05:58:28.996Z,26.24
2023-05-06T06:00:55.933Z,26.87
2023-05-06T06:03:22.849Z,27.00
2023-05-06T06:05:49.883Z,26.81
2023-05-06T06:08:19.610Z,26.99
2023-05-06T06:10:47.449Z,27.42
2023-05-06T06:13:14.402Z,28.44
2023-05-06T06:15:41.593Z,28.65
2023-05-06T06:18:09.021Z,29.22
2023-05-06T06:20:37.914Z,28.90
2023-05-06T06:23:04.784Z,28.66
2023-05-06T06:25:31.733Z,28.23
2023-05-06T06:27:58.567Z,28.35
2023-05-06T06:30:25.630Z,28.44
2023-05-06T06:32:53.757Z,29.18
2023-05-06T06:35:20.743Z,29.40
2023-05-06T06:37:47.654Z,29.54
2023-05-06T06:40:14.704Z,29.45
2023-05-06T06:42:41.641Z,28.81
2023-05-06T06:45:09.912Z,27.01
2023-05-06T06:47:37.079Z,28.27
2023-05-06T06:50:04.213Z,27.60
2023-05-06T06:52:31.125Z,28.45
2023-05-06T06:54:58.044Z,29.13
2023-05-06T06:57:25.043Z,28.81
2023-05-06T06:59:53.782Z,29.18
2023-05-06T07:02:23.749Z,29.55
2023-05-06T07:04:50.627Z,29.60
2023-05-06T07:07:17.463Z,30.06
2023-05-06T07:09:44.589Z,29.76
2023-05-06T07:12:11.571Z,29.31
2023-05-06T07:14:38.541Z,29.38
2023-05-06T07:17:05.533Z,28.77
2023-05-06T07:19:32.484Z,28.29
2023-05-06T07:21:59.498Z,28.08
2023-05-06T07:24:26.293Z,27.96
2023-05-06T07:26:53.157Z,28.07
2023-05-06T07:29:20.004Z,28.58
2023-05-06T07:31:46.903Z,28.38
2023-05-06T07:34:13.821Z,28.06
2023-05-06T07:36:40.957Z,27.00
2023-05-06T07:39:07.977Z,27.44
2023-05-06T07:41:35.064Z,27.79
2023-05-06T07:44:02.207Z,27.30
2023-05-06T07:46:29.247Z,28.07
2023-05-06T07:48:56.159Z,29.04
2023-05-06T07:51:23.034Z,29.06
2023-05-06T07:53:49.890Z,29.23
2023-05-06T07:56:18.413Z,29.35
2023-05-06T07:58:45.289Z,29.96
2023-05-06T08:01:12.155Z,31.00
2023-05-06T08:03:39.214Z,31.21
2023-05-06T08:06:07.003Z,30.17
2023-05-06T08:08:33.911Z,30.48
2023-05-06T08:11:01.261Z,30.15
2023-05-06T08:13:28.384Z,28.51
2023-05-06T08:15:55.962Z,28.57
2023-05-06T08:18:23.431Z,28.42
2023-05-06T08:20:51.374Z,28.47
2023-05-06T08:23:18.240Z,28.21
2023-05-06T08:25:45.095Z,29.56
2023-05-06T08:28:11.999Z,29.26
2023-05-06T08:30:38.892Z,29.24
2023-05-06T08:33:06.060Z,30.61
2023-05-06T08:35:32.938Z,30.47
2023-05-06T08:37:59.758Z,30.76
2023-05-06T08:40:28.104Z,30.35
2023-05-06T08:42:56.162Z,30.20
2023-05-06T08:45:23.757Z,30.20
2023-05-06T08:47:50.782Z,29.36
2023-05-06T08:50:17.748Z,29.74
2023-05-06T08:52:45.406Z,30.46
2023-05-06T08:55:12.610Z,29.19
2023-05-06T08:57:40.528Z,29.72
2023-05-06T09:00:11.184Z,29.39
2023-05-06T09:02:41.982Z,29.53
2023-05-06T09:05:10.529Z,28.65
2023-05-06T09:07:37.930Z,29.29
2023-05-06T09:10:13.056Z,29.54
2023-05-06T09:12:39.999Z,29.07
2023-05-06T09:15:07.556Z,29.07
2023-05-06T09:17:34.579Z,29.34
2023-05-06T09:20:01.494Z,29.04
2023-05-06T09:22:29.876Z,28.88
2023-05-06T09:24:57.775Z,28.59
2023-05-06T09:27:26.883Z,28.55
2023-05-06T09:30:10.097Z,28.32
2023-05-06T09:32:39.834Z,28.91
2023-05-06T09:35:08.650Z,29.12
2023-05-06T09:37:36.096Z,29.23
2023-05-06T09:40:03.039Z,28.79
2023-05-06T09:42:30.544Z,28.70
2023-05-06T09:45:01.378Z,28.71
2023-05-06T09:47:33.282Z,28.70
2023-05-06T09:50:01.803Z,28.60
2023-05-06T09:52:29.665Z,29.06
2023-05-06T09:54:57.522Z,28.86
2023-05-06T09:57:24.580Z,28.39
2023-05-06T09:59:54.968Z,28.61
2023-05-06T10:02:23.689Z,28.97
2023-05-06T10:04:51.519Z,29.47
2023-05-06T10:07:22.957Z,29.34
2023-05-06T10:09:51.562Z,28.86
2023-05-06T10:12:19.363Z,28.37
2023-05-06T10:14:46.482Z,29.19
2023-05-06T10:17:14.010Z,29.01
2023-05-06T10:19:44.490Z,28.58
2023-05-06T10:22:18.069Z,28.26
2023-05-06T10:25:05.954Z,28.49
2023-05-06T10:27:36.052Z,28.43
2023-05-06T10:30:02.982Z,27.71
2023-05-06T10:32:32.646Z,27.96
2023-05-06T10:35:06.417Z,27.45
2023-05-06T10:37:34.280Z,28.10
2023-05-06T10:40:01.210Z,28.13
2023-05-06T10:42:30.729Z,27.73
2023-05-06T10:45:04.165Z,27.27
2023-05-06T10:47:50.020Z,27.29
2023-05-06T10:50:22.416Z,27.53
2023-05-06T10:52:52.579Z,27.99
2023-05-06T10:55:28.108Z,28.16
2023-05-06T10:58:03.911Z,28.16
2023-05-06T11:00:34.694Z,28.08
2023-05-06T11:03:03.875Z,27.95
2023-05-06T11:05:30.858Z,28.18
2023-05-06T11:08:11.115Z,27.65
2023-05-06T11:10:38.000Z,27.05
2023-05-06T11:13:27.897Z,27.54
2023-05-06T11:15:56.033Z,27.74
2023-05-06T11:18:27.034Z,27.27
2023-05-06T11:21:03.305Z,27.02
2023-05-06T11:23:42.771Z,26.81
2023-05-06T11:26:10.881Z,26.96
2023-05-06T11:28:38.755Z,27.03
2023-05-06T11:31:05.870Z,27.26
2023-05-06T11:33:34.137Z,26.84
2023-05-06T11:36:01.671Z,26.92
2023-05-06T11:38:43.215Z,26.69
2023-05-06T11:41:10.061Z,26.81
2023-05-06T11:43:36.991Z,26.58
2023-05-06T11:46:04.041Z,26.47
2023-05-06T11:48:30.964Z,26.64
2023-05-06T11:50:57.998Z,26.46
2023-05-06T11:53:24.957Z,26.43
2023-05-06T11:55:54.910Z,26.91
2023-05-06T11:58:25.664Z,27.19
2023-05-06T12:00:57.335Z,27.44
2023-05-06T12:03:25.233Z,27.61
2023-05-06T12:05:52.386Z,27.60
2023-05-06T12:08:27.818Z,27.83
2023-05-06T12:10:59.775Z,28.04
2023-05-06T12:13:27.477Z,27.67
2023-05-06T12:15:55.404Z,27.66
2023-05-06T12:18:22.931Z,28.16
2023-05-06T12:20:49.772Z,28.68
2023-05-06T12:23:16.898Z,28.44
2023-05-06T12:25:49.187Z,28.38
2023-05-06T12:28:20.410Z,28.10
2023-05-06T12:30:47.721Z,28.11
2023-05-06T12:33:14.588Z,28.41
2023-05-06T12:35:41.603Z,28.41
2023-05-06T12:38:13.386Z,27.99
2023-05-06T12:40:41.266Z,27.91
2023-05-06T12:43:09.125Z,28.07
2023-05-06T12:45:36.650Z,27.69
2023-05-06T12:48:04.133Z,28.43
2023-05-06T12:50:39.025Z,28.94
2023-05-06T12:53:07.462Z,29.14
2023-05-06T12:55:35.534Z,28.96
2023-05-06T12:58:02.784Z,29.43
2023-05-06T13:00:30.552Z,29.56
2023-05-06T13:02:57.493Z,29.66
2023-05-06T13:05:24.427Z,30.16
2023-05-06T13:07:51.531Z,29.88
2023-05-06T13:10:18.427Z,30.19
2023-05-06T13:12:45.290Z,30.15
2023-05-06T13:15:12.164Z,30.93
2023-05-06T13:17:39.125Z,29.56
2023-05-06T13:20:07.463Z,30.58
2023-05-06T13:22:47.001Z,31.57
2023-05-06T13:25:20.519Z,30.99
2023-05-06T13:27:47.460Z,31.20
2023-05-06T13:30:14.483Z,30.61
2023-05-06T13:32:41.395Z,31.02
2023-05-06T13:35:09.148Z,31.31
2023-05-06T13:37:36.202Z,30.99
2023-05-06T13:40:03.573Z,31.36
2023-05-06T13:42:30.607Z,30.77
2023-05-06T13:44:57.487Z,31.33
2023-05-06T13:47:24.429Z,31.45
2023-05-06T13:49:51.334Z,31.29
2023-05-06T13:52:18.170Z,30.35
2023-05-06T13:54:45.258Z,30.80
2023-05-06T13:57:12.075Z,30.38
2023-05-06T13:59:38.935Z,30.70
2023-05-06T14:02:09.225Z,30.13
2023-05-06T14:04:36.756Z,31.02
2023-05-06T14:07:03.677Z,28.45
2023-05-06T14:09:31.217Z,28.03
2023-05-06T14:11:58.111Z,28.25
2023-05-06T14:14:24.926Z,28.48
2023-05-06T14:16:54.633Z,28.29
2023-05-06T14:19:21.486Z,29.41
2023-05-06T14:21:48.341Z,30.17
2023-05-06T14:24:15.216Z,29.64
2023-05-06T14:26:42.819Z,30.15
2023-05-06T14:29:09.708Z,30.24
2023-05-06T14:31:36.641Z,29.72
2023-05-06T14:34:03.558Z,29.44
2023-05-06T14:36:30.432Z,28.91
2023-05-06T14:38:57.329Z,29.10
2023-05-06T14:41:24.187Z,29.16
2023-05-06T14:43:51.009Z,28.67
2023-05-06T14:46:18.001Z,28.23
2023-05-06T14:48:45.599Z,27.60
2023-05-06T14:51:12.487Z,27.66
2023-05-06T14:53:39.396Z,28.13
2023-05-06T14:56:09.643Z,27.26
2023-05-06T14:58:36.571Z,27.26
2023-05-06T15:01:03.471Z,27.02
2023-05-06T15:03:30.597Z,27.49
2023-05-06T15:05:57.462Z,27.10
2023-05-06T15:08:24.357Z,26.21
2023-05-06T15:10:51.214Z,25.78
2023-05-06T15:13:18.152Z,24.05
2023-05-06T15:15:45.068Z,25.22
2023-05-06T15:18:13.395Z,26.27
2023-05-06T15:20:40.984Z,26.37
2023-05-06T15:23:07.859Z,25.33
2023-05-06T15:25:36.245Z,25.84
2023-05-06T15:28:05.159Z,27.75
2023-05-06T15:30:32.085Z,27.21
2023-05-06T15:32:59.082Z,27.73
2023-05-06T15:35:25.992Z,28.30
2023-05-06T15:37:58.875Z,28.60
2023-05-06T15:40:26.509Z,28.25
2023-05-06T15:42:53.379Z,27.71
2023-05-06T15:45:21.442Z,25.55
2023-05-06T15:47:48.529Z,26.22
2023-05-06T15:50:28.913Z,27.66
2023-05-06T15:52:59.187Z,27.56
2023-05-06T15:55:26.695Z,28.13
2023-05-06T15:57:54.978Z,28.31
2023-05-06T16:00:22.165Z,28.43
2023-05-06T16:02:49.268Z,28.81
2023-05-06T16:05:16.527Z,27.71
2023-05-06T16:07:43.714Z,28.48
2023-05-06T16:10:10.872Z,28.09
2023-05-06T16:12:38.046Z,27.08
2023-05-06T16:15:05.260Z,26.69
2023-05-06T16:17:33.142Z,26.14
2023-05-06T16:20:00.213Z,26.91
2023-05-06T16:22:27.058Z,26.84
2023-05-06T16:24:53.897Z,26.68
2023-05-06T16:27:21.309Z,26.44
2023-05-06T16:29:48.275Z,26.89
2023-05-06T16:32:15.134Z,27.33
2023-05-06T16:34:41.993Z,28.09
2023-05-06T16:37:08.924Z,27.77
2023-05-06T16:39:36.001Z,27.63
2023-05-06T16:42:03.199Z,27.90
2023-05-06T16:44:30.025Z,27.49
2023-05-06T16:46:56.941Z,28.19
2023-05-06T16:49:27.842Z,27.16
2023-05-06T16:51:54.980Z,27.21
2023-05-06T16:54:21.836Z,27.97
2023-05-06T16:56:52.578Z,27.28
2023-05-06T16:59:21.986Z,27.51
2023-05-06T17:01:49.388Z,27.04
2023-05-06T17:04:16.745Z,27.56
2023-05-06T17:06:43.606Z,27.16
2023-05-06T17:09:11.162Z,27.02
2023-05-06T17:11:38.088Z,26.20
2023-05-06T17:14:05.057Z,26.38
2023-05-06T17:16:31.971Z,26.29
2023-05-06T17:18:58.888Z,25.90
2023-05-06T17:21:27.973Z,26.01
2023-05-06T17:23:54.823Z,26.08
2023-05-06T17:26:21.994Z,26.44
2023-05-06T17:28:49.107Z,26.18
2023-05-06T17:31:16.242Z,26.45
2023-05-06T17:33:44.367Z,27.08
2023-05-06T17:36:12.613Z,27.02
2023-05-06T17:38:39.845Z,27.08
2023-05-06T17:41:06.770Z,26.69
2023-05-06T17:43:34.281Z,27.60
2023-05-06T17:46:01.477Z,27.02
2023-05-06T17:48:28.583Z,26.72
2023-05-06T17:51:00.804Z,26.97
2023-05-06T17:53:27.916Z,27.46
2023-05-06T17:55:54.750Z,26.77
2023-05-06T17:58:21.747Z,25.39
2023-05-06T18:00:48.624Z,26.05
2023-05-06T18:03:15.675Z,26.10
2023-05-06T18:05:42.616Z,26.15
2023-05-06T18:08:09.722Z,25.76
2023-05-06T18:10:36.549Z,24.98
2023-05-06T18:13:03.933Z,25.12
2023-05-06T18:15:30.891Z,25.80
2023-05-06T18:17:57.760Z,26.59
2023-05-06T18:20:24.672Z,26.77
2023-05-06T18:22:51.580Z,26.75
2023-05-06T18:25:18.453Z,26.04
2023-05-06T18:27:45.412Z,26.62
2023-05-06T18:30:12.552Z,26.30
2023-05-06T18:32:39.459Z,26.27
2023-05-06T18:35:06.749Z,25.88
2023-05-06T18:37:33.693Z,25.94
2023-05-06T18:40:00.553Z,25.38
2023-05-06T18:42:27.831Z,25.50
2023-05-06T18:44:54.691Z,25.57
2023-05-06T18:47:21.617Z,25.01
2023-05-06T18:49:48.864Z,25.17
2023-05-06T18:52:17.841Z,24.40
2023-05-06T18:54:44.987Z,23.82
2023-05-06T18:57:12.349Z,23.87
2023-05-06T18:59:39.210Z,24.35
2023-05-06T19:02:06.074Z,23.62
2023-05-06T19:04:33.695Z,24.65
2023-05-06T19:07:01.302Z,24.00
2023-05-06T19:09:28.253Z,23.36
2023-05-06T19:11:55.938Z,22.50
2023-05-06T19:14:23.614Z,22.50
2023-05-06T19:16:52.259Z,21.71
2023-05-06T19:19:19.201Z,21.06
2023-05-06T19:21:46.211Z,20.88
2023-05-06T19:24:13.069Z,20.61
2023-05-06T19:26:40.248Z,20.45
2023-05-06T19:29:07.117Z,18.83
2023-05-06T19:31:35.013Z,19.39
2023-05-06T19:34:02.145Z,18.77
2023-05-06T19:36:28.976Z,19.43
2023-05-06T19:38:55.807Z,19.63
2023-05-06T19:41:22.666Z,19.61
2023-05-06T19:43:51.450Z,19.30
2023-05-06T19:46:18.708Z,19.00
2023-05-06T19:48:46.316Z,19.11
2023-05-06T19:51:13.644Z,19.43
2023-05-06T19:53:40.491Z,19.32
2023-05-06T19:56:13.225Z,19.85
2023-05-06T19:58:40.393Z,19.70
2023-05-06T20:01:07.354Z,20.01
2023-05-06T20:03:34.375Z,20.77
2023-05-06T20:06:01.454Z,20.90
2023-05-06T20:08:28.373Z,20.69
2023-05-06T20:10:55.248Z,20.14
2023-05-06T20:13:22.253Z,20.60
2023-05-06T20:15:49.204Z,21.12
2023-05-06T20:18:16.374Z,21.27
2023-05-06T20:20:43.506Z,22.19
2023-05-06T20:23:10.491Z,22.76
2023-05-06T20:25:37.496Z,22.37
2023-05-06T20:28:06.017Z,22.37
2023-05-06T20:30:33.431Z,22.03
2023-05-06T20:33:00.435Z,22.84
2023-05-06T20:35:27.531Z,23.10
2023-05-06T20:37:54.742Z,22.83
2023-05-06T20:40:22.054Z,23.09
2023-05-06T20:42:48.884Z,22.79
2023-05-06T20:45:15.725Z,22.92
2023-05-06T20:47:42.599Z,23.01
2023-05-06T20:50:16.462Z,22.31
2023-05-06T20:52:46.872Z,22.52
2023-05-06T20:55:16.636Z,22.48
2023-05-06T20:57:44.467Z,22.54
2023-05-06T21:00:11.866Z,22.76
2023-05-06T21:02:41.246Z,22.60
2023-05-06T21:05:09.322Z,22.37
2023-05-06T21:07:36.430Z,22.54
2023-05-06T21:10:05.861Z,22.50
2023-05-06T21:12:33.539Z,21.95
2023-05-06T21:15:00.630Z,22.70
2023-05-06T21:17:27.735Z,23.61
2023-05-06T21:19:54.698Z,23.94
2023-05-06T21:22:23.141Z,23.44
2023-05-06T21:24:50.812Z,23.12
2023-05-06T21:27:17.705Z,22.77
2023-05-06T21:29:44.645Z,23.30
2023-05-06T21:32:11.562Z,23.11
2023-05-06T21:34:38.415Z,22.56
2023-05-06T21:37:05.384Z,22.68
2023-05-06T21:39:32.267Z,22.84
2023-05-06T21:41:59.128Z,22.52
2023-05-06T21:44:26.155Z,23.14
2023-05-06T21:46:53.096Z,23.14
2023-05-06T21:49:22.018Z,23.12
2023-05-06T21:51:48.943Z,23.18
2023-05-06T21:54:17.277Z,23.27
2023-05-06T21:56:44.176Z,22.95
2023-05-06T21:59:11.031Z,22.63
2023-05-06T22:01:37.988Z,22.80
2023-05-06T22:04:11.372Z,22.09
2023-05-06T22:06:39.168Z,22.00
2023-05-06T22:09:09.807Z,21.89
2023-05-06T22:11:38.570Z,21.88
2023-05-06T22:14:06.902Z,22.17
2023-05-06T22:16:35.810Z,22.45
2023-05-06T22:19:04.125Z,23.03
2023-05-06T22:21:32.771Z,22.89
2023-05-06T22:23:59.784Z,22.94
2023-05-06T22:26:28.336Z,22.87
2023-05-06T22:28:57.936Z,22.55
2023-05-06T22:31:25.282Z,22.13
2023-05-06T22:33:55.668Z,22.71
2023-05-06T22:36:22.745Z,21.81
2023-05-06T22:38:50.013Z,21.82
2023-05-06T22:41:17.684Z,22.13
2023-05-06T22:43:44.543Z,22.05
2023-05-06T22:46:11.423Z,21.88
2023-05-06T22:48:38.448Z,21.29
2023-05-06T22:51:05.431Z,21.16
2023-05-06T22:53:32.662Z,20.97
2023-05-06T22:55:59.599Z,20.84
2023-05-06T22:58:26.492Z,20.60
2023-05-06T23:00:53.377Z,20.85
2023-05-06T23:03:22.807Z,20.73
2023-05-06T23:05:49.841Z,20.31
2023-05-06T23:08:16.754Z,20.41
2023-05-06T23:10:44.858Z,20.51
2023-05-06T23:13:12.269Z,20.86
2023-05-06T23:15:39.340Z,20.68
2023-05-06T23:18:06.931Z,21.10
2023-05-06T23:20:33.905Z,20.47
2023-05-06T23:23:00.738Z,20.74
2023-05-06T23:25:27.734Z,20.80
2023-05-06T23:27:54.606Z,20.96
2023-05-06T23:30:21.464Z,20.76
2023-05-06T23:32:48.379Z,21.00
2023-05-06T23:35:15.224Z,20.98
2023-05-06T23:37:42.100Z,21.24
2023-05-06T23:40:09.172Z,21.54
2023-05-06T23:42:36.239Z,21.33
2023-05-06T23:45:03.185Z,21.30
2023-05-06T23:47:30.061Z,21.41
2023-05-06T23:49:57.946Z,21.73
2023-05-06T23:52:24.966Z,21.39
2023-05-06T23:54:51.804Z,21.06
2023-05-06T23:57:18.677Z,21.49
2023-05-06T23:59:45.654Z,21.07
